Azusa, California
Current Conditions -  °F | °C
As of 1:47 PM on Friday 24 Oct 2014 (Local Time) from KPOC Reporting Station
Clear Clear  
Wind Chill: 32°   Ceiling: Unl
Heat Index: 32°   Visibility: 10mi
Dew Point:   Wind: 12mph
Humidity: 17%   Direction: 250°WSW
Pressure: 29.98"   Gusts: NA
Location:  34.13°N, 117.9°W
Report Text: KPOC 242047Z 25010KT 10SM CLR 32/04 A2998
Loading
Personal Weather Stations






























Interactive Weather Map
Tropical Storm Tracking
New forecast layout! Learn more

10-Day Weather Forecast

Advertisements
Track Severe Weather on mobile